sensor_id;sensor_type;location;lat;lon;timestamp;P1;durP1;ratioP1;P2;durP2;ratioP2
51612;SDS011;37694;51.748;14.326;2023-12-28T00:00:39;11.20;;;6.88;;
51612;SDS011;37694;51.748;14.326;2023-12-28T00:03:05;8.02;;;6.00;;
51612;SDS011;37694;51.748;14.326;2023-12-28T00:05:31;13.57;;;7.05;;
51612;SDS011;37694;51.748;14.326;2023-12-28T00:07:56;8.90;;;6.28;;
51612;SDS011;37694;51.748;14.326;2023-12-28T00:10:26;7.78;;;6.45;;
51612;SDS011;37694;51.748;14.326;2023-12-28T00:12:53;8.98;;;6.22;;
51612;SDS011;37694;51.748;14.326;2023-12-28T00:15:19;10.25;;;6.55;;
51612;SDS011;37694;51.748;14.326;2023-12-28T00:17:45;10.50;;;6.78;;
51612;SDS011;37694;51.748;14.326;2023-12-28T00:20:11;9.13;;;6.75;;
51612;SDS011;37694;51.748;14.326;2023-12-28T00:22:37;9.40;;;6.93;;
51612;SDS011;37694;51.748;14.326;2023-12-28T00:25:03;9.88;;;6.18;;
51612;SDS011;37694;51.748;14.326;2023-12-28T00:27:29;9.68;;;6.57;;
51612;SDS011;37694;51.748;14.326;2023-12-28T00:29:55;12.65;;;6.75;;
51612;SDS011;37694;51.748;14.326;2023-12-28T00:32:21;8.80;;;6.85;;
51612;SDS011;37694;51.748;14.326;2023-12-28T00:34:47;10.43;;;6.75;;
51612;SDS011;37694;51.748;14.326;2023-12-28T00:37:12;8.35;;;6.07;;
51612;SDS011;37694;51.748;14.326;2023-12-28T00:39:38;7.72;;;6.43;;
51612;SDS011;37694;51.748;14.326;2023-12-28T00:42:05;11.38;;;7.00;;
51612;SDS011;37694;51.748;14.326;2023-12-28T00:44:31;8.18;;;6.40;;
51612;SDS011;37694;51.748;14.326;2023-12-28T00:46:57;8.48;;;6.35;;
51612;SDS011;37694;51.748;14.326;2023-12-28T00:49:23;10.82;;;6.40;;
51612;SDS011;37694;51.748;14.326;2023-12-28T00:51:48;11.32;;;6.35;;
51612;SDS011;37694;51.748;14.326;2023-12-28T00:54:14;7.60;;;5.95;;
51612;SDS011;37694;51.748;14.326;2023-12-28T00:56:40;9.85;;;6.60;;
51612;SDS011;37694;51.748;14.326;2023-12-28T00:59:05;9.60;;;6.72;;
51612;SDS011;37694;51.748;14.326;2023-12-28T01:01:31;8.40;;;6.20;;
51612;SDS011;37694;51.748;14.326;2023-12-28T01:03:56;7.47;;;6.00;;
51612;SDS011;37694;51.748;14.326;2023-12-28T01:06:22;9.65;;;6.90;;
51612;SDS011;37694;51.748;14.326;2023-12-28T01:08:52;7.20;;;6.40;;
51612;SDS011;37694;51.748;14.326;2023-12-28T01:11:18;10.98;;;6.15;;
51612;SDS011;37694;51.748;14.326;2023-12-28T01:13:44;9.43;;;6.85;;
51612;SDS011;37694;51.748;14.326;2023-12-28T01:16:11;7.90;;;6.43;;
51612;SDS011;37694;51.748;14.326;2023-12-28T01:18:38;8.50;;;6.25;;
51612;SDS011;37694;51.748;14.326;2023-12-28T01:21:03;6.68;;;5.85;;
51612;SDS011;37694;51.748;14.326;2023-12-28T01:23:29;7.97;;;5.78;;
51612;SDS011;37694;51.748;14.326;2023-12-28T01:25:55;7.63;;;6.50;;
51612;SDS011;37694;51.748;14.326;2023-12-28T01:28:21;12.15;;;6.32;;
51612;SDS011;37694;51.748;14.326;2023-12-28T01:30:47;8.55;;;6.78;;
51612;SDS011;37694;51.748;14.326;2023-12-28T01:33:13;7.47;;;6.38;;
51612;SDS011;37694;51.748;14.326;2023-12-28T01:35:38;8.20;;;6.28;;
51612;SDS011;37694;51.748;14.326;2023-12-28T01:38:04;7.88;;;6.43;;
51612;SDS011;37694;51.748;14.326;2023-12-28T01:40:30;7.38;;;5.90;;
51612;SDS011;37694;51.748;14.326;2023-12-28T01:42:55;7.75;;;6.40;;
51612;SDS011;37694;51.748;14.326;2023-12-28T01:45:21;11.68;;;6.05;;
51612;SDS011;37694;51.748;14.326;2023-12-28T01:47:47;7.25;;;6.47;;
51612;SDS011;37694;51.748;14.326;2023-12-28T01:50:14;10.52;;;6.43;;
51612;SDS011;37694;51.748;14.326;2023-12-28T01:52:41;8.45;;;6.65;;
51612;SDS011;37694;51.748;14.326;2023-12-28T01:55:06;7.07;;;6.28;;
51612;SDS011;37694;51.748;14.326;2023-12-28T01:57:34;6.85;;;6.03;;
51612;SDS011;37694;51.748;14.326;2023-12-28T02:00:00;8.15;;;5.78;;
51612;SDS011;37694;51.748;14.326;2023-12-28T02:02:26;8.02;;;6.63;;
51612;SDS011;37694;51.748;14.326;2023-12-28T02:04:52;9.60;;;6.28;;
51612;SDS011;37694;51.748;14.326;2023-12-28T02:07:18;9.52;;;6.22;;
51612;SDS011;37694;51.748;14.326;2023-12-28T02:09:46;7.65;;;6.07;;
51612;SDS011;37694;51.748;14.326;2023-12-28T02:12:12;6.65;;;6.00;;
51612;SDS011;37694;51.748;14.326;2023-12-28T02:14:38;9.10;;;6.47;;
51612;SDS011;37694;51.748;14.326;2023-12-28T02:17:06;7.00;;;5.82;;
51612;SDS011;37694;51.748;14.326;2023-12-28T02:19:50;8.10;;;6.40;;
51612;SDS011;37694;51.748;14.326;2023-12-28T02:22:17;8.95;;;5.85;;
51612;SDS011;37694;51.748;14.326;2023-12-28T02:27:44;6.97;;;5.93;;
51612;SDS011;37694;51.748;14.326;2023-12-28T02:30:17;7.07;;;5.78;;
51612;SDS011;37694;51.748;14.326;2023-12-28T02:38:35;7.95;;;6.13;;
51612;SDS011;37694;51.748;14.326;2023-12-28T02:41:02;7.10;;;6.30;;
51612;SDS011;37694;51.748;14.326;2023-12-28T02:43:29;6.63;;;5.78;;
51612;SDS011;37694;51.748;14.326;2023-12-28T02:45:54;8.85;;;5.97;;
51612;SDS011;37694;51.748;14.326;2023-12-28T02:48:20;7.80;;;5.80;;
51612;SDS011;37694;51.748;14.326;2023-12-28T02:50:46;7.05;;;5.68;;
51612;SDS011;37694;51.748;14.326;2023-12-28T02:53:12;6.53;;;5.70;;
51612;SDS011;37694;51.748;14.326;2023-12-28T02:55:38;6.88;;;5.95;;
51612;SDS011;37694;51.748;14.326;2023-12-28T02:58:03;7.18;;;5.88;;
51612;SDS011;37694;51.748;14.326;2023-12-28T03:00:30;6.68;;;5.97;;
51612;SDS011;37694;51.748;14.326;2023-12-28T03:02:55;8.40;;;6.32;;
51612;SDS011;37694;51.748;14.326;2023-12-28T03:05:21;7.07;;;5.57;;
51612;SDS011;37694;51.748;14.326;2023-12-28T03:07:47;7.03;;;5.65;;
51612;SDS011;37694;51.748;14.326;2023-12-28T03:10:12;7.45;;;5.97;;
51612;SDS011;37694;51.748;14.326;2023-12-28T03:12:38;7.40;;;5.65;;
51612;SDS011;37694;51.748;14.326;2023-12-28T03:15:04;7.30;;;5.47;;
51612;SDS011;37694;51.748;14.326;2023-12-28T03:17:30;8.93;;;5.70;;
51612;SDS011;37694;51.748;14.326;2023-12-28T03:20:00;6.68;;;5.57;;
51612;SDS011;37694;51.748;14.326;2023-12-28T03:22:26;7.32;;;5.60;;
51612;SDS011;37694;51.748;14.326;2023-12-28T03:24:52;6.75;;;5.47;;
51612;SDS011;37694;51.748;14.326;2023-12-28T03:27:18;7.65;;;5.80;;
51612;SDS011;37694;51.748;14.326;2023-12-28T03:29:43;6.78;;;5.30;;
51612;SDS011;37694;51.748;14.326;2023-12-28T03:32:09;8.23;;;6.13;;
51612;SDS011;37694;51.748;14.326;2023-12-28T03:34:35;8.55;;;5.22;;
51612;SDS011;37694;51.748;14.326;2023-12-28T03:37:01;6.32;;;5.72;;
51612;SDS011;37694;51.748;14.326;2023-12-28T03:39:27;6.50;;;5.80;;
51612;SDS011;37694;51.748;14.326;2023-12-28T03:41:52;5.20;;;4.68;;
51612;SDS011;37694;51.748;14.326;2023-12-28T03:44:21;6.95;;;5.00;;
51612;SDS011;37694;51.748;14.326;2023-12-28T03:46:48;6.63;;;5.35;;
51612;SDS011;37694;51.748;14.326;2023-12-28T03:49:17;6.35;;;5.63;;
51612;SDS011;37694;51.748;14.326;2023-12-28T03:51:44;6.10;;;5.10;;
51612;SDS011;37694;51.748;14.326;2023-12-28T03:54:10;6.07;;;5.18;;
51612;SDS011;37694;51.748;14.326;2023-12-28T03:56:36;5.72;;;4.85;;
51612;SDS011;37694;51.748;14.326;2023-12-28T03:59:05;5.65;;;5.03;;
51612;SDS011;37694;51.748;14.326;2023-12-28T04:01:31;7.75;;;4.43;;
51612;SDS011;37694;51.748;14.326;2023-12-28T04:03:57;6.35;;;5.63;;
51612;SDS011;37694;51.748;14.326;2023-12-28T04:06:23;5.30;;;4.80;;
51612;SDS011;37694;51.748;14.326;2023-12-28T04:08:48;5.00;;;4.50;;
51612;SDS011;37694;51.748;14.326;2023-12-28T04:11:14;7.10;;;5.00;;
51612;SDS011;37694;51.748;14.326;2023-12-28T04:13:40;6.88;;;5.50;;
51612;SDS011;37694;51.748;14.326;2023-12-28T04:16:06;6.03;;;4.32;;
51612;SDS011;37694;51.748;14.326;2023-12-28T04:18:31;5.28;;;4.78;;
51612;SDS011;37694;51.748;14.326;2023-12-28T04:20:58;8.18;;;5.38;;
51612;SDS011;37694;51.748;14.326;2023-12-28T04:23:23;6.50;;;4.75;;
51612;SDS011;37694;51.748;14.326;2023-12-28T04:25:49;4.95;;;4.10;;
51612;SDS011;37694;51.748;14.326;2023-12-28T04:28:15;4.97;;;4.45;;
51612;SDS011;37694;51.748;14.326;2023-12-28T04:30:41;5.47;;;4.88;;
51612;SDS011;37694;51.748;14.326;2023-12-28T04:33:06;5.82;;;4.88;;
51612;SDS011;37694;51.748;14.326;2023-12-28T04:35:32;5.90;;;5.25;;
51612;SDS011;37694;51.748;14.326;2023-12-28T04:37:58;4.90;;;4.38;;
51612;SDS011;37694;51.748;14.326;2023-12-28T04:40:24;5.05;;;4.40;;
51612;SDS011;37694;51.748;14.326;2023-12-28T04:42:49;4.53;;;4.13;;
51612;SDS011;37694;51.748;14.326;2023-12-28T04:45:15;5.90;;;4.15;;
51612;SDS011;37694;51.748;14.326;2023-12-28T04:47:41;4.53;;;4.13;;
51612;SDS011;37694;51.748;14.326;2023-12-28T04:50:07;5.95;;;4.40;;
51612;SDS011;37694;51.748;14.326;2023-12-28T04:52:32;6.95;;;4.50;;
51612;SDS011;37694;51.748;14.326;2023-12-28T04:54:58;4.95;;;4.20;;
51612;SDS011;37694;51.748;14.326;2023-12-28T04:57:24;4.63;;;4.13;;
51612;SDS011;37694;51.748;14.326;2023-12-28T04:59:51;4.57;;;4.18;;
51612;SDS011;37694;51.748;14.326;2023-12-28T05:02:17;4.28;;;3.88;;
51612;SDS011;37694;51.748;14.326;2023-12-28T05:04:43;4.15;;;3.75;;
51612;SDS011;37694;51.748;14.326;2023-12-28T05:07:09;5.63;;;3.63;;
51612;SDS011;37694;51.748;14.326;2023-12-28T05:09:35;4.75;;;4.30;;
51612;SDS011;37694;51.748;14.326;2023-12-28T05:12:00;4.10;;;3.70;;
51612;SDS011;37694;51.748;14.326;2023-12-28T05:14:26;5.18;;;4.18;;
51612;SDS011;37694;51.748;14.326;2023-12-28T05:16:52;4.68;;;4.20;;
51612;SDS011;37694;51.748;14.326;2023-12-28T05:19:17;5.35;;;4.80;;
51612;SDS011;37694;51.748;14.326;2023-12-28T05:21:43;4.07;;;3.67;;
51612;SDS011;37694;51.748;14.326;2023-12-28T05:24:09;4.13;;;3.72;;
51612;SDS011;37694;51.748;14.326;2023-12-28T05:26:34;4.70;;;4.22;;
51612;SDS011;37694;51.748;14.326;2023-12-28T05:29:00;4.43;;;3.97;;
51612;SDS011;37694;51.748;14.326;2023-12-28T05:31:26;8.50;;;3.40;;
51612;SDS011;37694;51.748;14.326;2023-12-28T05:33:52;4.32;;;3.92;;
51612;SDS011;37694;51.748;14.326;2023-12-28T05:36:18;4.20;;;3.80;;
51612;SDS011;37694;51.748;14.326;2023-12-28T05:38:43;5.15;;;4.10;;
51612;SDS011;37694;51.748;14.326;2023-12-28T05:41:09;4.28;;;3.88;;
51612;SDS011;37694;51.748;14.326;2023-12-28T05:43:36;8.07;;;3.80;;
51612;SDS011;37694;51.748;14.326;2023-12-28T05:46:02;3.90;;;3.50;;
51612;SDS011;37694;51.748;14.326;2023-12-28T05:48:28;5.90;;;3.80;;
51612;SDS011;37694;51.748;14.326;2023-12-28T05:50:54;3.85;;;3.45;;
51612;SDS011;37694;51.748;14.326;2023-12-28T05:53:19;5.75;;;3.60;;
51612;SDS011;37694;51.748;14.326;2023-12-28T05:55:45;3.70;;;3.40;;
51612;SDS011;37694;51.748;14.326;2023-12-28T05:58:11;4.20;;;3.80;;
51612;SDS011;37694;51.748;14.326;2023-12-28T06:00:36;5.20;;;3.90;;
51612;SDS011;37694;51.748;14.326;2023-12-28T06:03:03;3.80;;;3.47;;
51612;SDS011;37694;51.748;14.326;2023-12-28T06:05:29;4.07;;;3.70;;
51612;SDS011;37694;51.748;14.326;2023-12-28T06:07:55;7.05;;;3.45;;
51612;SDS011;37694;51.748;14.326;2023-12-28T06:10:22;7.30;;;3.63;;
51612;SDS011;37694;51.748;14.326;2023-12-28T06:12:49;10.85;;;4.43;;
51612;SDS011;37694;51.748;14.326;2023-12-28T06:15:15;15.50;;;4.85;;
51612;SDS011;37694;51.748;14.326;2023-12-28T06:17:40;21.98;;;3.92;;
51612;SDS011;37694;51.748;14.326;2023-12-28T06:20:06;39.33;;;5.63;;
51612;SDS011;37694;51.748;14.326;2023-12-28T06:22:33;19.90;;;4.03;;
51612;SDS011;37694;51.748;14.326;2023-12-28T06:25:01;18.60;;;4.47;;
51612;SDS011;37694;51.748;14.326;2023-12-28T06:27:28;22.40;;;4.32;;
51612;SDS011;37694;51.748;14.326;2023-12-28T06:29:54;19.88;;;4.22;;
51612;SDS011;37694;51.748;14.326;2023-12-28T06:32:20;19.45;;;4.20;;
51612;SDS011;37694;51.748;14.326;2023-12-28T06:34:45;22.65;;;5.00;;
51612;SDS011;37694;51.748;14.326;2023-12-28T06:37:11;28.95;;;5.15;;
51612;SDS011;37694;51.748;14.326;2023-12-28T06:39:38;20.33;;;4.90;;
51612;SDS011;37694;51.748;14.326;2023-12-28T06:42:04;17.13;;;4.47;;
51612;SDS011;37694;51.748;14.326;2023-12-28T06:44:30;31.90;;;3.92;;
51612;SDS011;37694;51.748;14.326;2023-12-28T06:46:55;11.30;;;3.80;;
51612;SDS011;37694;51.748;14.326;2023-12-28T06:49:21;17.50;;;4.70;;
51612;SDS011;37694;51.748;14.326;2023-12-28T06:51:47;18.05;;;4.63;;
51612;SDS011;37694;51.748;14.326;2023-12-28T06:54:15;12.15;;;3.63;;
51612;SDS011;37694;51.748;14.326;2023-12-28T06:56:42;10.07;;;4.05;;
51612;SDS011;37694;51.748;14.326;2023-12-28T06:59:07;13.77;;;4.45;;
51612;SDS011;37694;51.748;14.326;2023-12-28T07:01:37;17.63;;;4.63;;
51612;SDS011;37694;51.748;14.326;2023-12-28T07:04:03;7.50;;;4.22;;
51612;SDS011;37694;51.748;14.326;2023-12-28T07:06:29;6.38;;;3.40;;
51612;SDS011;37694;51.748;14.326;2023-12-28T07:08:55;18.33;;;4.65;;
51612;SDS011;37694;51.748;14.326;2023-12-28T07:11:21;17.95;;;4.07;;
51612;SDS011;37694;51.748;14.326;2023-12-28T07:13:47;17.10;;;4.28;;
51612;SDS011;37694;51.748;14.326;2023-12-28T07:16:13;18.35;;;3.85;;
51612;SDS011;37694;51.748;14.326;2023-12-28T07:18:38;21.60;;;4.10;;
51612;SDS011;37694;51.748;14.326;2023-12-28T07:21:04;60.63;;;4.78;;
51612;SDS011;37694;51.748;14.326;2023-12-28T07:23:31;11.18;;;3.90;;
51612;SDS011;37694;51.748;14.326;2023-12-28T07:25:57;14.75;;;4.15;;
51612;SDS011;37694;51.748;14.326;2023-12-28T07:28:22;11.23;;;4.13;;
51612;SDS011;37694;51.748;14.326;2023-12-28T07:30:48;13.82;;;4.32;;
51612;SDS011;37694;51.748;14.326;2023-12-28T07:33:14;14.10;;;4.50;;
51612;SDS011;37694;51.748;14.326;2023-12-28T07:35:39;20.10;;;4.70;;
51612;SDS011;37694;51.748;14.326;2023-12-28T07:38:05;19.73;;;4.93;;
51612;SDS011;37694;51.748;14.326;2023-12-28T07:40:31;16.13;;;5.13;;
51612;SDS011;37694;51.748;14.326;2023-12-28T07:42:56;20.35;;;4.82;;
51612;SDS011;37694;51.748;14.326;2023-12-28T07:45:22;21.20;;;4.57;;
51612;SDS011;37694;51.748;14.326;2023-12-28T07:47:49;16.70;;;4.72;;
51612;SDS011;37694;51.748;14.326;2023-12-28T07:50:16;19.48;;;5.50;;
51612;SDS011;37694;51.748;14.326;2023-12-28T07:52:42;21.50;;;5.05;;
51612;SDS011;37694;51.748;14.326;2023-12-28T07:55:08;17.60;;;4.20;;
51612;SDS011;37694;51.748;14.326;2023-12-28T07:57:34;17.67;;;4.95;;
51612;SDS011;37694;51.748;14.326;2023-12-28T08:00:01;16.50;;;4.53;;
51612;SDS011;37694;51.748;14.326;2023-12-28T08:02:27;13.02;;;4.88;;
51612;SDS011;37694;51.748;14.326;2023-12-28T08:04:53;26.10;;;3.90;;
51612;SDS011;37694;51.748;14.326;2023-12-28T08:07:18;20.08;;;5.25;;
51612;SDS011;37694;51.748;14.326;2023-12-28T08:09:44;17.17;;;4.95;;
51612;SDS011;37694;51.748;14.326;2023-12-28T08:12:10;22.55;;;4.88;;
51612;SDS011;37694;51.748;14.326;2023-12-28T08:14:35;32.30;;;5.10;;
51612;SDS011;37694;51.748;14.326;2023-12-28T08:17:01;38.55;;;5.82;;
51612;SDS011;37694;51.748;14.326;2023-12-28T08:19:28;49.55;;;7.63;;
51612;SDS011;37694;51.748;14.326;2023-12-28T08:21:53;55.72;;;5.90;;
51612;SDS011;37694;51.748;14.326;2023-12-28T08:24:19;24.70;;;5.47;;
51612;SDS011;37694;51.748;14.326;2023-12-28T08:26:45;30.20;;;6.28;;
51612;SDS011;37694;51.748;14.326;2023-12-28T08:29:11;33.03;;;5.72;;
51612;SDS011;37694;51.748;14.326;2023-12-28T08:31:36;17.05;;;5.47;;
51612;SDS011;37694;51.748;14.326;2023-12-28T08:34:02;17.45;;;4.72;;
51612;SDS011;37694;51.748;14.326;2023-12-28T08:36:28;16.13;;;4.60;;
51612;SDS011;37694;51.748;14.326;2023-12-28T08:38:54;29.77;;;6.18;;
51612;SDS011;37694;51.748;14.326;2023-12-28T08:41:20;20.45;;;5.15;;
51612;SDS011;37694;51.748;14.326;2023-12-28T08:43:48;18.85;;;4.60;;
51612;SDS011;37694;51.748;14.326;2023-12-28T08:46:14;27.75;;;4.28;;
51612;SDS011;37694;51.748;14.326;2023-12-28T08:48:41;14.95;;;4.40;;
51612;SDS011;37694;51.748;14.326;2023-12-28T08:51:07;12.93;;;4.72;;
51612;SDS011;37694;51.748;14.326;2023-12-28T08:53:34;15.20;;;4.63;;
51612;SDS011;37694;51.748;14.326;2023-12-28T08:56:00;13.68;;;4.35;;
51612;SDS011;37694;51.748;14.326;2023-12-28T08:58:26;6.25;;;3.22;;
51612;SDS011;37694;51.748;14.326;2023-12-28T09:00:51;13.52;;;3.50;;
51612;SDS011;37694;51.748;14.326;2023-12-28T09:03:17;13.25;;;3.58;;
51612;SDS011;37694;51.748;14.326;2023-12-28T09:05:42;4.35;;;2.90;;
51612;SDS011;37694;51.748;14.326;2023-12-28T09:08:08;6.40;;;3.03;;
51612;SDS011;37694;51.748;14.326;2023-12-28T09:10:34;9.18;;;4.15;;
51612;SDS011;37694;51.748;14.326;2023-12-28T09:13:00;7.55;;;3.08;;
51612;SDS011;37694;51.748;14.326;2023-12-28T09:15:25;7.13;;;3.10;;
51612;SDS011;37694;51.748;14.326;2023-12-28T09:17:51;5.50;;;3.42;;
51612;SDS011;37694;51.748;14.326;2023-12-28T09:20:17;12.60;;;3.58;;
51612;SDS011;37694;51.748;14.326;2023-12-28T09:22:44;11.05;;;3.03;;
51612;SDS011;37694;51.748;14.326;2023-12-28T09:25:11;5.25;;;3.03;;
51612;SDS011;37694;51.748;14.326;2023-12-28T09:27:36;16.00;;;3.42;;
51612;SDS011;37694;51.748;14.326;2023-12-28T09:30:02;7.32;;;3.22;;
51612;SDS011;37694;51.748;14.326;2023-12-28T09:32:28;4.90;;;3.15;;
51612;SDS011;37694;51.748;14.326;2023-12-28T09:34:54;6.95;;;3.08;;
51612;SDS011;37694;51.748;14.326;2023-12-28T09:37:19;7.93;;;3.22;;
51612;SDS011;37694;51.748;14.326;2023-12-28T09:39:45;7.75;;;3.00;;
51612;SDS011;37694;51.748;14.326;2023-12-28T09:42:17;4.57;;;2.70;;
51612;SDS011;37694;51.748;14.326;2023-12-28T09:44:51;16.25;;;3.58;;
51612;SDS011;37694;51.748;14.326;2023-12-28T09:47:17;13.82;;;2.53;;
51612;SDS011;37694;51.748;14.326;2023-12-28T09:49:43;11.32;;;2.83;;
51612;SDS011;37694;51.748;14.326;2023-12-28T09:52:09;10.68;;;2.85;;
51612;SDS011;37694;51.748;14.326;2023-12-28T09:54:35;6.30;;;2.95;;
51612;SDS011;37694;51.748;14.326;2023-12-28T09:57:00;7.78;;;2.72;;
51612;SDS011;37694;51.748;14.326;2023-12-28T09:59:26;6.95;;;2.63;;
51612;SDS011;37694;51.748;14.326;2023-12-28T10:01:54;6.03;;;2.80;;
51612;SDS011;37694;51.748;14.326;2023-12-28T10:04:21;10.93;;;2.60;;
51612;SDS011;37694;51.748;14.326;2023-12-28T10:06:46;5.55;;;2.53;;
51612;SDS011;37694;51.748;14.326;2023-12-28T10:09:12;6.88;;;2.45;;
51612;SDS011;37694;51.748;14.326;2023-12-28T10:11:38;5.13;;;2.60;;
51612;SDS011;37694;51.748;14.326;2023-12-28T10:14:04;9.05;;;2.92;;
51612;SDS011;37694;51.748;14.326;2023-12-28T10:16:30;6.43;;;2.63;;
51612;SDS011;37694;51.748;14.326;2023-12-28T10:18:55;8.57;;;3.05;;
51612;SDS011;37694;51.748;14.326;2023-12-28T10:21:24;3.63;;;2.28;;
51612;SDS011;37694;51.748;14.326;2023-12-28T10:23:50;11.27;;;3.78;;
51612;SDS011;37694;51.748;14.326;2023-12-28T10:26:17;6.70;;;3.13;;
51612;SDS011;37694;51.748;14.326;2023-12-28T10:28:44;3.58;;;2.65;;
51612;SDS011;37694;51.748;14.326;2023-12-28T10:31:09;5.40;;;2.75;;
51612;SDS011;37694;51.748;14.326;2023-12-28T10:33:37;4.50;;;2.90;;
51612;SDS011;37694;51.748;14.326;2023-12-28T10:36:06;7.45;;;2.60;;
51612;SDS011;37694;51.748;14.326;2023-12-28T10:38:36;4.82;;;2.70;;
51612;SDS011;37694;51.748;14.326;2023-12-28T10:41:04;5.30;;;2.60;;
51612;SDS011;37694;51.748;14.326;2023-12-28T10:43:34;4.57;;;2.63;;
51612;SDS011;37694;51.748;14.326;2023-12-28T10:46:27;9.05;;;3.03;;
51612;SDS011;37694;51.748;14.326;2023-12-28T10:49:00;8.07;;;2.47;;
51612;SDS011;37694;51.748;14.326;2023-12-28T10:51:34;5.95;;;2.45;;
51612;SDS011;37694;51.748;14.326;2023-12-28T10:56:49;6.20;;;3.00;;
51612;SDS011;37694;51.748;14.326;2023-12-28T11:02:11;4.68;;;2.65;;
51612;SDS011;37694;51.748;14.326;2023-12-28T11:04:47;6.47;;;2.72;;
51612;SDS011;37694;51.748;14.326;2023-12-28T11:07:15;7.75;;;3.20;;
51612;SDS011;37694;51.748;14.326;2023-12-28T11:09:42;8.18;;;3.40;;
51612;SDS011;37694;51.748;14.326;2023-12-28T11:12:09;8.48;;;2.88;;
51612;SDS011;37694;51.748;14.326;2023-12-28T11:14:35;5.85;;;3.25;;
51612;SDS011;37694;51.748;14.326;2023-12-28T11:17:04;10.95;;;3.33;;
51612;SDS011;37694;51.748;14.326;2023-12-28T11:19:30;9.70;;;3.75;;
51612;SDS011;37694;51.748;14.326;2023-12-28T11:21:57;12.70;;;2.90;;
51612;SDS011;37694;51.748;14.326;2023-12-28T11:24:26;16.40;;;3.58;;
51612;SDS011;37694;51.748;14.326;2023-12-28T11:26:55;13.80;;;3.80;;
51612;SDS011;37694;51.748;14.326;2023-12-28T11:29:22;5.82;;;2.63;;
51612;SDS011;37694;51.748;14.326;2023-12-28T11:31:52;7.40;;;2.22;;
51612;SDS011;37694;51.748;14.326;2023-12-28T11:34:30;6.05;;;2.55;;
51612;SDS011;37694;51.748;14.326;2023-12-28T11:36:59;2.78;;;2.45;;
51612;SDS011;37694;51.748;14.326;2023-12-28T11:44:30;8.63;;;2.30;;
51612;SDS011;37694;51.748;14.326;2023-12-28T11:46:56;8.57;;;2.38;;
51612;SDS011;37694;51.748;14.326;2023-12-28T11:49:26;5.78;;;2.83;;
51612;SDS011;37694;51.748;14.326;2023-12-28T11:51:56;3.78;;;2.67;;
51612;SDS011;37694;51.748;14.326;2023-12-28T11:54:26;2.20;;;2.00;;
51612;SDS011;37694;51.748;14.326;2023-12-28T11:56:51;3.15;;;1.95;;
51612;SDS011;37694;51.748;14.326;2023-12-28T11:59:18;4.78;;;2.47;;
51612;SDS011;37694;51.748;14.326;2023-12-28T12:01:49;3.58;;;2.25;;
51612;SDS011;37694;51.748;14.326;2023-12-28T12:04:16;2.15;;;1.95;;
51612;SDS011;37694;51.748;14.326;2023-12-28T12:06:42;2.65;;;1.88;;
51612;SDS011;37694;51.748;14.326;2023-12-28T12:09:10;3.88;;;2.10;;
51612;SDS011;37694;51.748;14.326;2023-12-28T12:11:36;3.60;;;2.03;;
51612;SDS011;37694;51.748;14.326;2023-12-28T12:14:03;2.60;;;2.40;;
51612;SDS011;37694;51.748;14.326;2023-12-28T12:16:34;3.67;;;2.60;;
51612;SDS011;37694;51.748;14.326;2023-12-28T12:19:00;3.58;;;2.30;;
51612;SDS011;37694;51.748;14.326;2023-12-28T12:21:26;4.85;;;2.50;;
51612;SDS011;37694;51.748;14.326;2023-12-28T12:23:54;6.28;;;2.22;;
51612;SDS011;37694;51.748;14.326;2023-12-28T12:26:19;4.82;;;3.00;;
51612;SDS011;37694;51.748;14.326;2023-12-28T12:28:46;3.67;;;2.63;;
51612;SDS011;37694;51.748;14.326;2023-12-28T12:31:13;3.78;;;2.35;;
51612;SDS011;37694;51.748;14.326;2023-12-28T12:33:39;3.38;;;2.55;;
51612;SDS011;37694;51.748;14.326;2023-12-28T12:36:06;2.50;;;2.30;;
51612;SDS011;37694;51.748;14.326;2023-12-28T12:38:33;9.45;;;2.63;;
51612;SDS011;37694;51.748;14.326;2023-12-28T12:40:59;3.80;;;2.60;;
51612;SDS011;37694;51.748;14.326;2023-12-28T12:43:25;7.82;;;2.58;;
51612;SDS011;37694;51.748;14.326;2023-12-28T12:45:52;2.85;;;2.63;;
51612;SDS011;37694;51.748;14.326;2023-12-28T12:48:18;2.83;;;2.30;;
51612;SDS011;37694;51.748;14.326;2023-12-28T12:50:44;7.50;;;2.58;;
51612;SDS011;37694;51.748;14.326;2023-12-28T12:53:10;3.88;;;2.60;;
51612;SDS011;37694;51.748;14.326;2023-12-28T12:55:37;2.58;;;2.25;;
51612;SDS011;37694;51.748;14.326;2023-12-28T12:58:08;6.60;;;2.30;;
51612;SDS011;37694;51.748;14.326;2023-12-28T13:00:38;5.40;;;2.80;;
51612;SDS011;37694;51.748;14.326;2023-12-28T13:03:07;4.80;;;2.45;;
51612;SDS011;37694;51.748;14.326;2023-12-28T13:05:35;3.38;;;2.53;;
51612;SDS011;37694;51.748;14.326;2023-12-28T13:08:01;6.07;;;2.75;;
51612;SDS011;37694;51.748;14.326;2023-12-28T13:10:27;10.23;;;3.58;;
51612;SDS011;37694;51.748;14.326;2023-12-28T13:12:52;6.32;;;2.70;;
51612;SDS011;37694;51.748;14.326;2023-12-28T13:15:19;5.78;;;2.63;;
51612;SDS011;37694;51.748;14.326;2023-12-28T13:17:45;32.78;;;5.32;;
51612;SDS011;37694;51.748;14.326;2023-12-28T13:20:11;18.63;;;4.13;;
51612;SDS011;37694;51.748;14.326;2023-12-28T13:22:36;6.30;;;2.78;;
51612;SDS011;37694;51.748;14.326;2023-12-28T13:25:02;9.45;;;2.80;;
51612;SDS011;37694;51.748;14.326;2023-12-28T13:27:29;11.15;;;2.75;;
51612;SDS011;37694;51.748;14.326;2023-12-28T13:29:56;5.60;;;2.97;;
51612;SDS011;37694;51.748;14.326;2023-12-28T13:32:22;12.68;;;3.17;;
51612;SDS011;37694;51.748;14.326;2023-12-28T13:34:48;6.50;;;2.90;;
51612;SDS011;37694;51.748;14.326;2023-12-28T13:37:16;5.45;;;3.05;;
51612;SDS011;37694;51.748;14.326;2023-12-28T13:39:42;9.93;;;3.17;;
51612;SDS011;37694;51.748;14.326;2023-12-28T13:42:07;10.55;;;3.03;;
51612;SDS011;37694;51.748;14.326;2023-12-28T13:44:34;6.15;;;2.72;;
51612;SDS011;37694;51.748;14.326;2023-12-28T13:47:00;6.60;;;3.00;;
51612;SDS011;37694;51.748;14.326;2023-12-28T13:49:26;13.35;;;3.53;;
51612;SDS011;37694;51.748;14.326;2023-12-28T13:51:52;11.27;;;3.13;;
51612;SDS011;37694;51.748;14.326;2023-12-28T13:54:18;11.10;;;3.55;;
51612;SDS011;37694;51.748;14.326;2023-12-28T13:56:47;12.35;;;2.90;;
51612;SDS011;37694;51.748;14.326;2023-12-28T13:59:13;11.65;;;3.83;;
51612;SDS011;37694;51.748;14.326;2023-12-28T14:01:39;7.55;;;3.00;;
51612;SDS011;37694;51.748;14.326;2023-12-28T14:04:05;11.98;;;3.10;;
51612;SDS011;37694;51.748;14.326;2023-12-28T14:06:31;8.77;;;3.47;;
51612;SDS011;37694;51.748;14.326;2023-12-28T14:08:57;8.90;;;3.60;;
51612;SDS011;37694;51.748;14.326;2023-12-28T14:11:23;17.27;;;3.85;;
51612;SDS011;37694;51.748;14.326;2023-12-28T14:13:49;11.23;;;3.55;;
51612;SDS011;37694;51.748;14.326;2023-12-28T14:16:15;10.95;;;3.70;;
51612;SDS011;37694;51.748;14.326;2023-12-28T14:18:41;12.48;;;3.97;;
51612;SDS011;37694;51.748;14.326;2023-12-28T14:21:08;5.50;;;3.45;;
51612;SDS011;37694;51.748;14.326;2023-12-28T14:23:34;12.90;;;3.80;;
51612;SDS011;37694;51.748;14.326;2023-12-28T14:26:04;9.52;;;3.88;;
51612;SDS011;37694;51.748;14.326;2023-12-28T14:28:42;9.80;;;3.58;;
51612;SDS011;37694;51.748;14.326;2023-12-28T14:31:09;6.97;;;3.40;;
51612;SDS011;37694;51.748;14.326;2023-12-28T14:33:35;5.57;;;3.58;;
51612;SDS011;37694;51.748;14.326;2023-12-28T14:36:02;3.90;;;3.47;;
51612;SDS011;37694;51.748;14.326;2023-12-28T14:38:30;5.38;;;3.70;;
51612;SDS011;37694;51.748;14.326;2023-12-28T14:40:56;5.18;;;3.22;;
51612;SDS011;37694;51.748;14.326;2023-12-28T14:43:22;10.88;;;3.92;;
51612;SDS011;37694;51.748;14.326;2023-12-28T14:45:48;7.00;;;3.85;;